Latest Weather Observations for Hay Point

IDQ60801

Issued at 8:05 am EST Thursday 23 October 2014 (issued every 30 minutes, with the page automatically refreshed every 10 minutes)

About weather observations | Map of weather stations | Latest weather observations for QLD | Other Formats
Station Details ID: 033317 Name: HAY POINT Lat: -21.29 Lon: 149.30 Height: 7.0 m
Data from the previous 72 hours. | See also: Recent months for locations in Queensland
Date/Time
EST
Temp
°C
App
Temp
°C
Dew
Point
Rel
Hum
%
Delta-T
°C
Wind Press
QNH
hPa
Press
MSL
hPa
Rain
since 9 am
mm
Dir
 
Spd
km/h
Gust
km/h
Spd
kts
Gust
kts
23/08:00am - - - - - SSE 32 39 17 21 - - -
23/07:30am - - - - - SSW 24 32 13 17 - - -
23/07:00am - - - - - SSW 20 26 11 14 - - -
23/06:30am - - - - - SW 17 20 9 11 - - -
23/06:00am - - - - - SW 17 20 9 11 - - -
23/05:30am - - - - - SW 17 20 9 11 - - -
23/05:00am - - - - - S 24 30 13 16 - - -
23/04:30am - - - - - SSW 17 28 9 15 - - -
23/04:00am - - - - - S 20 26 11 14 - - -
23/03:30am - - - - - S 19 24 10 13 - - -
23/03:00am - - - - - SSW 17 20 9 11 - - -
23/02:30am - - - - - SE 22 30 12 16 - - -
23/02:00am - - - - - SE 20 28 11 15 - - -
23/01:30am - - - - - ESE 24 30 13 16 - - -
23/01:00am - - - - - ESE 28 32 15 17 - - -
23/12:30am - - - - - ESE 30 33 16 18 - - -
23/12:00am - - - - - E 24 28 13 15 - - -
 
Date/Time
EST
Temp
°C
App
Temp
°C
Dew
Point
Rel
Hum
%
Delta-T
°C
Wind Press
QNH
hPa
Press
MSL
hPa
Rain
since 9 am
mm
Dir
 
Spd
km/h
Gust
km/h
Spd
kts
Gust
kts
22/11:30pm - - - - - E 28 32 15 17 - - -
22/11:00pm - - - - - ESE 24 30 13 16 - - -
22/10:30pm - - - - - ESE 30 35 16 19 - - -
22/10:00pm - - - - - ESE 30 37 16 20 - - -
22/09:30pm - - - - - E 33 39 18 21 - - -
22/09:00pm - - - - - E 35 41 19 22 - - -
22/08:30pm - - - - - ESE 35 41 19 22 - - -
22/08:00pm - - - - - ESE 33 39 18 21 - - -
22/07:30pm - - - - - ESE 33 39 18 21 - - -
22/07:00pm - - - - - ESE 32 35 17 19 - - -
22/06:30pm - - - - - ESE 32 35 17 19 - - -
22/06:00pm - - - - - ESE 32 39 17 21 - - -
22/05:30pm - - - - - ESE 33 41 18 22 - - -
22/05:00pm - - - - - ESE 32 39 17 21 - - -
22/04:30pm - - - - - ESE 35 39 19 21 - - -
22/04:00pm - - - - - ESE 32 39 17 21 - - -
22/03:30pm - - - - - ESE 30 35 16 19 - - -
22/03:00pm - - - - - ESE 28 35 15 19 - - -
22/02:30pm - - - - - ESE 32 39 17 21 - - -
22/02:00pm - - - - - SE 26 33 14 18 - - -
22/01:30pm - - - - - SSE 26 33 14 18 - - -
22/01:00pm - - - - - SSE 28 35 15 19 - - -
22/12:30pm - - - - - SSE 24 32 13 17 - - -
22/12:00pm - - - - - SSE 26 32 14 17 - - -
22/11:30am - - - - - SSE 28 32 15 17 - - -
22/11:00am - - - - - SSE 28 33 15 18 - - -
22/10:30am - - - - - SE 24 32 13 17 - - -
22/10:00am - - - - - SE 26 32 14 17 - - -
22/09:30am - - - - - SSE 24 28 13 15 - - -
22/09:00am - - - - - ESE 26 32 14 17 - - -
22/08:30am - - - - - ESE 32 37 17 20 - - -
22/08:00am - - - - - E 33 39 18 21 - - -
22/07:30am - - - - - E 32 37 17 20 - - -
22/07:00am - - - - - ESE 35 41 19 22 - - -
22/06:30am - - - - - ESE 35 41 19 22 - - -
22/06:00am - - - - - ESE 33 43 18 23 - - -
22/05:30am - - - - - ESE 35 44 19 24 - - -
22/05:00am - - - - - ESE 37 48 20 26 - - -
22/04:30am - - - - - ESE 39 48 21 26 - - -
22/04:00am - - - - - SE 30 41 16 22 - - -
22/03:30am - - - - - SE 33 41 18 22 - - -
22/03:00am - - - - - SE 30 41 16 22 - - -
22/02:30am - - - - - ESE 35 44 19 24 - - -
22/02:00am - - - - - ESE 37 44 20 24 - - -
22/01:30am - - - - - ESE 37 48 20 26 - - -
22/01:00am - - - - - SE 35 44 19 24 - - -
22/12:30am - - - - - SE 37 44 20 24 - - -
22/12:00am - - - - - SE 35 48 19 26 - - -
 
Date/Time
EST
Temp
°C
App
Temp
°C
Dew
Point
Rel
Hum
%
Delta-T
°C
Wind Press
QNH
hPa
Press
MSL
hPa
Rain
since 9 am
mm
Dir
 
Spd
km/h
Gust
km/h
Spd
kts
Gust
kts
21/11:30pm - - - - - SE 35 48 19 26 - - -
21/11:00pm - - - - - SE 37 48 20 26 - - -
21/10:30pm - - - - - SE 37 48 20 26 - - -
21/10:00pm - - - - - ESE 41 50 22 27 - - -
21/09:30pm - - - - - ESE 44 52 24 28 - - -
21/09:00pm - - - - - ESE 41 50 22 27 - - -
21/08:30pm - - - - - ESE 41 48 22 26 - - -
21/08:00pm - - - - - ESE 41 48 22 26 - - -
21/07:30pm - - - - - ESE 41 48 22 26 - - -
21/07:00pm - - - - - ESE 41 50 22 27 - - -
21/06:30pm - - - - - ESE 39 50 21 27 - - -
21/06:00pm - - - - - ESE 43 52 23 28 - - -
21/05:30pm - - - - - ESE 46 54 25 29 - - -
21/05:00pm - - - - - ESE 41 48 22 26 - - -
21/04:30pm - - - - - ESE 41 50 22 27 - - -
21/04:00pm - - - - - ESE 37 48 20 26 - - -
21/03:30pm - - - - - SE 35 48 19 26 - - -
21/03:00pm - - - - - SE 35 46 19 25 - - -
21/02:30pm - - - - - SE 33 41 18 22 - - -
21/02:00pm - - - - - SE 30 41 16 22 - - -
21/01:30pm - - - - - SE 32 44 17 24 - - -
21/01:00pm - - - - - SE 37 50 20 27 - - -
21/12:30pm - - - - - SE 35 46 19 25 - - -
21/12:00pm - - - - - SE 35 48 19 26 - - -
21/11:30am - - - - - SE 32 39 17 21 - - -
21/11:00am - - - - - SE 33 41 18 22 - - -
21/10:30am - - - - - SE 33 41 18 22 - - -
21/10:00am - - - - - ESE 37 44 20 24 - - -
21/09:30am - - - - - ESE 39 50 21 27 - - -
21/09:00am - - - - - ESE 39 48 21 26 - - -
21/08:30am - - - - - E 32 39 17 21 - - -
21/08:28am - - - - - E 32 37 17 20 - - -
21/08:00am - - - - - SSE 37 48 20 26 - - -
21/07:30am - - - - - SSE 33 39 18 21 - - -
21/07:00am - - - - - SSW 20 28 11 15 - - -
21/06:30am - - - - - SSE 32 41 17 22 - - -
21/06:00am - - - - - SE 30 39 16 21 - - -
21/05:30am - - - - - ESE 30 37 16 20 - - -
21/05:00am - - - - - SE 26 35 14 19 - - -
21/04:30am - - - - - SE 28 35 15 19 - - -
21/04:00am - - - - - ESE 32 35 17 19 - - -
21/03:30am - - - - - ESE 26 35 14 19 - - -
21/03:00am - - - - - SE 24 32 13 17 - - -
21/02:30am - - - - - ESE 28 37 15 20 - - -
21/02:00am - - - - - SE 28 35 15 19 - - -
21/01:30am - - - - - ESE 32 39 17 21 - - -
21/01:00am - - - - - ESE 30 35 16 19 - - -
21/12:30am - - - - - ESE 32 37 17 20 - - -
21/12:00am - - - - - ESE 33 37 18 20 - - -
 
Date/Time
EST
Temp
°C
App
Temp
°C
Dew
Point
Rel
Hum
%
Delta-T
°C
Wind Press
QNH
hPa
Press
MSL
hPa
Rain
since 9 am
mm
Dir
 
Spd
km/h
Gust
km/h
Spd
kts
Gust
kts
20/11:30pm - - - - - ESE 33 39 18 21 - - -
20/11:00pm - - - - - ESE 33 41 18 22 - - -
20/10:30pm - - - - - ESE 41 48 22 26 - - -
20/10:00pm - - - - - ESE 37 43 20 23 - - -
20/09:30pm - - - - - ESE 37 43 20 23 - - -
20/09:00pm - - - - - ESE 37 43 20 23 - - -
20/08:30pm - - - - - ESE 35 41 19 22 - - -
20/08:00pm - - - - - ESE 35 43 19 23 - - -
20/07:30pm - - - - - ESE 35 41 19 22 - - -
20/07:00pm - - - - - ESE 33 39 18 21 - - -
20/06:30pm - - - - - ESE 33 39 18 21 - - -
20/06:00pm - - - - - ESE 33 41 18 22 - - -
20/05:30pm - - - - - ESE 32 41 17 22 - - -
20/05:00pm - - - - - ESE 32 37 17 20 - - -
20/04:30pm - - - - - ESE 30 39 16 21 - - -
20/04:00pm - - - - - ESE 28 35 15 19 - - -
20/03:30pm - - - - - SE 28 35 15 19 - - -
20/03:00pm - - - - - ESE 30 37 16 20 - - -
20/02:30pm - - - - - SE 26 35 14 19 - - -
20/02:00pm - - - - - SE 28 39 15 21 - - -
20/01:30pm - - - - - SSE 30 37 16 20 - - -
20/01:00pm - - - - - SSE 30 37 16 20 - - -
20/12:30pm - - - - - SSE 30 39 16 21 - - -
20/12:00pm - - - - - SSE 35 41 19 22 - - -
20/11:30am - - - - - SSE 35 41 19 22 - - -
20/11:00am - - - - - SSE 35 46 19 25 - - -
20/10:30am - - - - - SSE 39 44 21 24 - - -
20/10:00am - - - - - S 35 46 19 25 - - -
20/09:30am - - - - - S 33 43 18 23 - - -
20/09:00am - - - - - SSE 37 44 20 24 - - -
20/08:30am - - - - - SSE 39 43 21 23 - - -

Other Formats:

Comma delimited format used in spreadsheet applications
http://www.bom.gov.au/fwo/IDQ60801/IDQ60801.99367.axf

JavaScript Object Notation format (JSON) in row-major order
http://www.bom.gov.au/fwo/IDQ60801/IDQ60801.99367.json